sensor_id;sensor_type;location;lat;lon;timestamp;P1;durP1;ratioP1;P2;durP2;ratioP2
58294;SDS011;45705;55.592;37.460;2023-03-14T00:01:00;2.45;;;1.63;;
58294;SDS011;45705;55.592;37.460;2023-03-14T00:03:32;2.95;;;2.10;;
58294;SDS011;45705;55.592;37.460;2023-03-14T00:06:01;5.50;;;2.28;;
58294;SDS011;45705;55.592;37.460;2023-03-14T00:08:28;6.45;;;1.88;;
58294;SDS011;45705;55.592;37.460;2023-03-14T00:10:54;4.97;;;1.83;;
58294;SDS011;45705;55.592;37.460;2023-03-14T00:13:19;4.55;;;2.28;;
58294;SDS011;45705;55.592;37.460;2023-03-14T00:15:48;7.47;;;1.90;;
58294;SDS011;45705;55.592;37.460;2023-03-14T00:18:13;2.50;;;1.60;;
58294;SDS011;45705;55.592;37.460;2023-03-14T00:20:39;6.65;;;1.95;;
58294;SDS011;45705;55.592;37.460;2023-03-14T00:23:04;4.78;;;2.20;;
58294;SDS011;45705;55.592;37.460;2023-03-14T00:25:30;5.35;;;2.55;;
58294;SDS011;45705;55.592;37.460;2023-03-14T00:27:56;5.40;;;1.75;;
58294;SDS011;45705;55.592;37.460;2023-03-14T00:30:22;4.10;;;2.20;;
58294;SDS011;45705;55.592;37.460;2023-03-14T00:32:47;7.80;;;2.67;;
58294;SDS011;45705;55.592;37.460;2023-03-14T00:35:13;9.00;;;2.88;;
58294;SDS011;45705;55.592;37.460;2023-03-14T00:37:40;5.47;;;2.53;;
58294;SDS011;45705;55.592;37.460;2023-03-14T00:40:06;4.85;;;2.53;;
58294;SDS011;45705;55.592;37.460;2023-03-14T00:42:33;5.93;;;2.33;;
58294;SDS011;45705;55.592;37.460;2023-03-14T00:45:00;5.68;;;2.35;;
58294;SDS011;45705;55.592;37.460;2023-03-14T00:47:25;3.55;;;2.35;;
58294;SDS011;45705;55.592;37.460;2023-03-14T00:49:51;5.35;;;2.42;;
58294;SDS011;45705;55.592;37.460;2023-03-14T00:52:18;6.85;;;3.55;;
58294;SDS011;45705;55.592;37.460;2023-03-14T00:54:44;6.60;;;2.35;;
58294;SDS011;45705;55.592;37.460;2023-03-14T00:57:09;5.78;;;2.67;;
58294;SDS011;45705;55.592;37.460;2023-03-14T00:59:35;3.33;;;2.05;;
58294;SDS011;45705;55.592;37.460;2023-03-14T01:02:01;4.95;;;2.42;;
58294;SDS011;45705;55.592;37.460;2023-03-14T01:04:27;7.65;;;2.97;;
58294;SDS011;45705;55.592;37.460;2023-03-14T01:06:54;5.13;;;2.22;;
58294;SDS011;45705;55.592;37.460;2023-03-14T01:09:19;5.85;;;2.60;;
58294;SDS011;45705;55.592;37.460;2023-03-14T01:11:47;4.63;;;2.83;;
58294;SDS011;45705;55.592;37.460;2023-03-14T01:14:14;7.95;;;2.47;;
58294;SDS011;45705;55.592;37.460;2023-03-14T01:16:40;6.57;;;2.65;;
58294;SDS011;45705;55.592;37.460;2023-03-14T01:19:06;6.78;;;2.88;;
58294;SDS011;45705;55.592;37.460;2023-03-14T01:21:32;6.57;;;3.03;;
58294;SDS011;45705;55.592;37.460;2023-03-14T01:24:01;4.57;;;2.80;;
58294;SDS011;45705;55.592;37.460;2023-03-14T01:26:29;6.78;;;2.45;;
58294;SDS011;45705;55.592;37.460;2023-03-14T01:31:24;4.00;;;2.75;;
58294;SDS011;45705;55.592;37.460;2023-03-14T01:33:50;8.80;;;2.70;;
58294;SDS011;45705;55.592;37.460;2023-03-14T01:36:17;4.05;;;2.67;;
58294;SDS011;45705;55.592;37.460;2023-03-14T01:38:43;3.30;;;2.13;;
58294;SDS011;45705;55.592;37.460;2023-03-14T01:41:14;5.95;;;3.72;;
58294;SDS011;45705;55.592;37.460;2023-03-14T01:43:43;4.38;;;2.35;;
58294;SDS011;45705;55.592;37.460;2023-03-14T01:46:20;4.47;;;2.80;;
58294;SDS011;45705;55.592;37.460;2023-03-14T01:51:32;5.93;;;3.00;;
58294;SDS011;45705;55.592;37.460;2023-03-14T01:54:24;6.75;;;3.60;;
58294;SDS011;45705;55.592;37.460;2023-03-14T01:57:00;7.65;;;4.18;;
58294;SDS011;45705;55.592;37.460;2023-03-14T01:59:53;5.68;;;3.10;;
58294;SDS011;45705;55.592;37.460;2023-03-14T02:02:24;5.88;;;4.22;;
58294;SDS011;45705;55.592;37.460;2023-03-14T02:04:51;9.02;;;5.03;;
58294;SDS011;45705;55.592;37.460;2023-03-14T02:07:45;5.57;;;3.72;;
58294;SDS011;45705;55.592;37.460;2023-03-14T02:10:20;7.50;;;3.97;;
58294;SDS011;45705;55.592;37.460;2023-03-14T02:12:48;6.07;;;3.90;;
58294;SDS011;45705;55.592;37.460;2023-03-14T02:15:38;8.90;;;4.45;;
58294;SDS011;45705;55.592;37.460;2023-03-14T02:18:10;5.18;;;3.45;;
58294;SDS011;45705;55.592;37.460;2023-03-14T02:23:16;11.10;;;4.32;;
58294;SDS011;45705;55.592;37.460;2023-03-14T02:26:01;7.65;;;4.65;;
58294;SDS011;45705;55.592;37.460;2023-03-14T02:28:42;6.65;;;3.97;;
58294;SDS011;45705;55.592;37.460;2023-03-14T02:31:08;8.85;;;4.80;;
58294;SDS011;45705;55.592;37.460;2023-03-14T02:33:35;8.75;;;4.05;;
58294;SDS011;45705;55.592;37.460;2023-03-14T02:36:04;8.43;;;4.35;;
58294;SDS011;45705;55.592;37.460;2023-03-14T02:41:23;10.77;;;5.47;;
58294;SDS011;45705;55.592;37.460;2023-03-14T02:43:57;9.43;;;5.15;;
58294;SDS011;45705;55.592;37.460;2023-03-14T02:46:23;14.13;;;5.45;;
58294;SDS011;45705;55.592;37.460;2023-03-14T02:48:51;8.43;;;4.70;;
58294;SDS011;45705;55.592;37.460;2023-03-14T02:51:23;6.43;;;3.85;;
58294;SDS011;45705;55.592;37.460;2023-03-14T02:53:51;7.07;;;4.60;;
58294;SDS011;45705;55.592;37.460;2023-03-14T02:56:17;11.52;;;5.15;;
58294;SDS011;45705;55.592;37.460;2023-03-14T02:58:43;9.63;;;5.35;;
58294;SDS011;45705;55.592;37.460;2023-03-14T03:01:19;11.18;;;5.28;;
58294;SDS011;45705;55.592;37.460;2023-03-14T03:03:45;10.18;;;6.05;;
58294;SDS011;45705;55.592;37.460;2023-03-14T03:06:11;10.38;;;5.47;;
58294;SDS011;45705;55.592;37.460;2023-03-14T03:08:37;10.65;;;5.65;;
58294;SDS011;45705;55.592;37.460;2023-03-14T03:11:03;8.85;;;3.35;;
58294;SDS011;45705;55.592;37.460;2023-03-14T03:13:31;9.57;;;6.15;;
58294;SDS011;45705;55.592;37.460;2023-03-14T03:15:59;11.85;;;5.75;;
58294;SDS011;45705;55.592;37.460;2023-03-14T03:18:25;7.85;;;4.28;;
58294;SDS011;45705;55.592;37.460;2023-03-14T03:20:50;12.43;;;6.35;;
58294;SDS011;45705;55.592;37.460;2023-03-14T03:23:16;13.18;;;6.40;;
58294;SDS011;45705;55.592;37.460;2023-03-14T03:25:42;13.65;;;5.22;;
58294;SDS011;45705;55.592;37.460;2023-03-14T03:28:14;10.98;;;5.88;;
58294;SDS011;45705;55.592;37.460;2023-03-14T03:30:40;8.75;;;5.47;;
58294;SDS011;45705;55.592;37.460;2023-03-14T03:33:06;10.13;;;5.00;;
58294;SDS011;45705;55.592;37.460;2023-03-14T03:35:33;10.10;;;5.68;;
58294;SDS011;45705;55.592;37.460;2023-03-14T03:37:59;11.13;;;6.15;;
58294;SDS011;45705;55.592;37.460;2023-03-14T03:40:26;11.07;;;6.05;;
58294;SDS011;45705;55.592;37.460;2023-03-14T03:42:52;7.30;;;4.38;;
58294;SDS011;45705;55.592;37.460;2023-03-14T03:45:17;11.70;;;5.90;;
58294;SDS011;45705;55.592;37.460;2023-03-14T03:47:50;11.43;;;5.32;;
58294;SDS011;45705;55.592;37.460;2023-03-14T03:50:16;11.93;;;6.28;;
58294;SDS011;45705;55.592;37.460;2023-03-14T03:52:42;7.60;;;4.15;;
58294;SDS011;45705;55.592;37.460;2023-03-14T03:55:08;10.90;;;4.90;;
58294;SDS011;45705;55.592;37.460;2023-03-14T03:57:34;10.88;;;6.05;;
58294;SDS011;45705;55.592;37.460;2023-03-14T04:00:00;7.60;;;4.45;;
58294;SDS011;45705;55.592;37.460;2023-03-14T04:02:29;4.88;;;3.25;;
58294;SDS011;45705;55.592;37.460;2023-03-14T04:04:55;11.38;;;5.63;;
58294;SDS011;45705;55.592;37.460;2023-03-14T04:07:21;12.50;;;5.35;;
58294;SDS011;45705;55.592;37.460;2023-03-14T04:09:47;6.47;;;3.97;;
58294;SDS011;45705;55.592;37.460;2023-03-14T04:12:45;9.60;;;5.30;;
58294;SDS011;45705;55.592;37.460;2023-03-14T04:15:16;9.05;;;4.78;;
58294;SDS011;45705;55.592;37.460;2023-03-14T04:17:46;11.43;;;5.72;;
58294;SDS011;45705;55.592;37.460;2023-03-14T04:20:13;6.90;;;4.28;;
58294;SDS011;45705;55.592;37.460;2023-03-14T04:22:39;7.95;;;4.65;;
58294;SDS011;45705;55.592;37.460;2023-03-14T04:25:06;6.90;;;4.45;;
58294;SDS011;45705;55.592;37.460;2023-03-14T04:27:38;11.15;;;5.18;;
58294;SDS011;45705;55.592;37.460;2023-03-14T04:30:10;6.13;;;3.25;;
58294;SDS011;45705;55.592;37.460;2023-03-14T04:33:01;7.88;;;4.30;;
58294;SDS011;45705;55.592;37.460;2023-03-14T04:35:32;7.95;;;4.90;;
58294;SDS011;45705;55.592;37.460;2023-03-14T04:38:05;9.50;;;4.20;;
58294;SDS011;45705;55.592;37.460;2023-03-14T04:40:33;7.70;;;4.57;;
58294;SDS011;45705;55.592;37.460;2023-03-14T04:43:03;12.10;;;5.43;;
58294;SDS011;45705;55.592;37.460;2023-03-14T04:45:29;6.80;;;4.30;;
58294;SDS011;45705;55.592;37.460;2023-03-14T04:47:58;16.83;;;7.82;;
58294;SDS011;45705;55.592;37.460;2023-03-14T04:50:24;9.57;;;4.10;;
58294;SDS011;45705;55.592;37.460;2023-03-14T04:52:50;8.27;;;4.88;;
58294;SDS011;45705;55.592;37.460;2023-03-14T04:55:16;8.38;;;4.15;;
58294;SDS011;45705;55.592;37.460;2023-03-14T04:57:42;9.02;;;4.70;;
58294;SDS011;45705;55.592;37.460;2023-03-14T05:00:09;7.45;;;4.13;;
58294;SDS011;45705;55.592;37.460;2023-03-14T05:02:58;6.15;;;4.15;;
58294;SDS011;45705;55.592;37.460;2023-03-14T05:05:53;6.53;;;4.07;;
58294;SDS011;45705;55.592;37.460;2023-03-14T05:08:42;8.85;;;5.28;;
58294;SDS011;45705;55.592;37.460;2023-03-14T05:11:40;5.75;;;3.45;;
58294;SDS011;45705;55.592;37.460;2023-03-14T05:14:25;6.60;;;4.05;;
58294;SDS011;45705;55.592;37.460;2023-03-14T05:17:05;5.13;;;3.67;;
58294;SDS011;45705;55.592;37.460;2023-03-14T05:22:34;9.38;;;4.05;;
58294;SDS011;45705;55.592;37.460;2023-03-14T05:25:16;7.45;;;4.22;;
58294;SDS011;45705;55.592;37.460;2023-03-14T05:27:52;13.48;;;3.78;;
58294;SDS011;45705;55.592;37.460;2023-03-14T05:30:19;6.60;;;3.83;;
58294;SDS011;45705;55.592;37.460;2023-03-14T05:33:06;6.10;;;3.28;;
58294;SDS011;45705;55.592;37.460;2023-03-14T05:35:43;7.35;;;4.03;;
58294;SDS011;45705;55.592;37.460;2023-03-14T05:38:17;5.25;;;3.47;;
58294;SDS011;45705;55.592;37.460;2023-03-14T05:40:59;9.48;;;3.80;;
58294;SDS011;45705;55.592;37.460;2023-03-14T05:43:33;7.25;;;3.80;;
58294;SDS011;45705;55.592;37.460;2023-03-14T05:46:11;4.18;;;2.63;;
58294;SDS011;45705;55.592;37.460;2023-03-14T05:48:57;6.63;;;3.58;;
58294;SDS011;45705;55.592;37.460;2023-03-14T05:51:59;5.43;;;3.20;;
58294;SDS011;45705;55.592;37.460;2023-03-14T05:54:43;5.28;;;3.03;;
58294;SDS011;45705;55.592;37.460;2023-03-14T05:57:47;6.25;;;3.35;;
58294;SDS011;45705;55.592;37.460;2023-03-14T06:00:13;7.13;;;3.42;;
58294;SDS011;45705;55.592;37.460;2023-03-14T06:02:51;9.48;;;3.80;;
58294;SDS011;45705;55.592;37.460;2023-03-14T06:05:22;6.70;;;3.50;;
58294;SDS011;45705;55.592;37.460;2023-03-14T06:07:52;6.13;;;3.35;;
58294;SDS011;45705;55.592;37.460;2023-03-14T06:10:19;4.82;;;2.83;;
58294;SDS011;45705;55.592;37.460;2023-03-14T06:12:45;5.90;;;3.55;;
58294;SDS011;45705;55.592;37.460;2023-03-14T06:15:11;6.35;;;3.75;;
58294;SDS011;45705;55.592;37.460;2023-03-14T06:17:38;5.32;;;2.85;;
58294;SDS011;45705;55.592;37.460;2023-03-14T06:20:09;6.63;;;3.25;;
58294;SDS011;45705;55.592;37.460;2023-03-14T06:22:35;10.50;;;3.10;;
58294;SDS011;45705;55.592;37.460;2023-03-14T06:25:02;6.03;;;3.35;;
58294;SDS011;45705;55.592;37.460;2023-03-14T06:27:29;9.38;;;3.50;;
58294;SDS011;45705;55.592;37.460;2023-03-14T06:29:56;8.07;;;4.07;;
58294;SDS011;45705;55.592;37.460;2023-03-14T06:32:23;5.32;;;3.00;;
58294;SDS011;45705;55.592;37.460;2023-03-14T06:34:52;6.18;;;2.88;;
58294;SDS011;45705;55.592;37.460;2023-03-14T06:37:18;6.22;;;3.58;;
58294;SDS011;45705;55.592;37.460;2023-03-14T06:39:45;5.13;;;3.13;;
58294;SDS011;45705;55.592;37.460;2023-03-14T06:42:20;6.80;;;3.22;;
58294;SDS011;45705;55.592;37.460;2023-03-14T06:44:47;10.23;;;3.90;;
58294;SDS011;45705;55.592;37.460;2023-03-14T06:47:14;6.65;;;3.10;;
58294;SDS011;45705;55.592;37.460;2023-03-14T06:49:42;7.25;;;3.42;;
58294;SDS011;45705;55.592;37.460;2023-03-14T06:52:08;5.13;;;3.05;;
58294;SDS011;45705;55.592;37.460;2023-03-14T06:54:34;12.40;;;3.88;;
58294;SDS011;45705;55.592;37.460;2023-03-14T06:57:00;7.57;;;3.13;;
58294;SDS011;45705;55.592;37.460;2023-03-14T06:59:26;7.95;;;4.18;;
58294;SDS011;45705;55.592;37.460;2023-03-14T07:01:51;7.07;;;4.03;;
58294;SDS011;45705;55.592;37.460;2023-03-14T07:04:17;5.07;;;3.67;;
58294;SDS011;45705;55.592;37.460;2023-03-14T07:09:13;6.85;;;3.45;;
58294;SDS011;45705;55.592;37.460;2023-03-14T07:11:45;5.20;;;2.70;;
58294;SDS011;45705;55.592;37.460;2023-03-14T07:14:11;5.03;;;3.13;;
58294;SDS011;45705;55.592;37.460;2023-03-14T07:16:37;6.07;;;3.40;;
58294;SDS011;45705;55.592;37.460;2023-03-14T07:19:05;10.07;;;3.45;;
58294;SDS011;45705;55.592;37.460;2023-03-14T07:21:31;6.60;;;3.42;;
58294;SDS011;45705;55.592;37.460;2023-03-14T07:23:58;6.68;;;3.45;;
58294;SDS011;45705;55.592;37.460;2023-03-14T07:26:24;6.50;;;3.00;;
58294;SDS011;45705;55.592;37.460;2023-03-14T07:28:51;6.22;;;4.65;;
58294;SDS011;45705;55.592;37.460;2023-03-14T07:31:18;12.18;;;3.85;;
58294;SDS011;45705;55.592;37.460;2023-03-14T07:33:45;8.45;;;4.13;;
58294;SDS011;45705;55.592;37.460;2023-03-14T07:36:11;9.10;;;4.63;;
58294;SDS011;45705;55.592;37.460;2023-03-14T07:38:40;10.18;;;4.00;;
58294;SDS011;45705;55.592;37.460;2023-03-14T07:41:29;9.05;;;5.00;;
58294;SDS011;45705;55.592;37.460;2023-03-14T07:44:14;6.97;;;4.95;;
58294;SDS011;45705;55.592;37.460;2023-03-14T07:46:40;5.75;;;3.45;;
58294;SDS011;45705;55.592;37.460;2023-03-14T07:49:06;8.27;;;3.30;;
58294;SDS011;45705;55.592;37.460;2023-03-14T07:51:32;13.52;;;4.13;;
58294;SDS011;45705;55.592;37.460;2023-03-14T07:53:57;5.22;;;3.20;;
58294;SDS011;45705;55.592;37.460;2023-03-14T07:56:23;5.90;;;3.22;;
58294;SDS011;45705;55.592;37.460;2023-03-14T07:58:49;5.55;;;3.30;;
58294;SDS011;45705;55.592;37.460;2023-03-14T08:01:15;5.40;;;3.17;;
58294;SDS011;45705;55.592;37.460;2023-03-14T08:03:40;5.43;;;2.97;;
58294;SDS011;45705;55.592;37.460;2023-03-14T08:06:06;5.82;;;3.28;;
58294;SDS011;45705;55.592;37.460;2023-03-14T08:08:32;4.85;;;3.13;;
58294;SDS011;45705;55.592;37.460;2023-03-14T08:11:04;5.25;;;3.30;;
58294;SDS011;45705;55.592;37.460;2023-03-14T08:13:30;4.20;;;2.72;;
58294;SDS011;45705;55.592;37.460;2023-03-14T08:15:56;5.47;;;2.85;;
58294;SDS011;45705;55.592;37.460;2023-03-14T08:18:22;6.43;;;3.38;;
58294;SDS011;45705;55.592;37.460;2023-03-14T08:20:47;6.15;;;3.65;;
58294;SDS011;45705;55.592;37.460;2023-03-14T08:23:13;5.78;;;3.15;;
58294;SDS011;45705;55.592;37.460;2023-03-14T08:25:39;8.75;;;3.72;;
58294;SDS011;45705;55.592;37.460;2023-03-14T08:28:05;9.25;;;3.67;;
58294;SDS011;45705;55.592;37.460;2023-03-14T08:30:30;4.93;;;3.08;;
58294;SDS011;45705;55.592;37.460;2023-03-14T08:32:57;3.90;;;2.63;;
58294;SDS011;45705;55.592;37.460;2023-03-14T08:35:24;5.15;;;3.10;;
58294;SDS011;45705;55.592;37.460;2023-03-14T08:37:50;6.40;;;2.90;;
58294;SDS011;45705;55.592;37.460;2023-03-14T08:40:17;5.53;;;3.40;;
58294;SDS011;45705;55.592;37.460;2023-03-14T08:42:43;6.13;;;3.10;;
58294;SDS011;45705;55.592;37.460;2023-03-14T08:45:11;5.75;;;3.42;;
58294;SDS011;45705;55.592;37.460;2023-03-14T08:47:38;7.10;;;3.42;;
58294;SDS011;45705;55.592;37.460;2023-03-14T08:50:05;6.57;;;3.00;;
58294;SDS011;45705;55.592;37.460;2023-03-14T08:52:31;6.68;;;2.83;;
58294;SDS011;45705;55.592;37.460;2023-03-14T08:54:58;5.18;;;3.45;;
58294;SDS011;45705;55.592;37.460;2023-03-14T08:57:24;6.22;;;3.05;;
58294;SDS011;45705;55.592;37.460;2023-03-14T08:59:53;6.18;;;3.70;;
58294;SDS011;45705;55.592;37.460;2023-03-14T09:02:20;5.72;;;3.28;;
58294;SDS011;45705;55.592;37.460;2023-03-14T09:04:47;4.28;;;2.72;;
58294;SDS011;45705;55.592;37.460;2023-03-14T09:07:12;8.85;;;4.00;;
58294;SDS011;45705;55.592;37.460;2023-03-14T09:09:38;9.00;;;4.15;;
58294;SDS011;45705;55.592;37.460;2023-03-14T09:12:04;4.63;;;3.13;;
58294;SDS011;45705;55.592;37.460;2023-03-14T09:14:30;8.82;;;3.20;;
58294;SDS011;45705;55.592;37.460;2023-03-14T09:16:57;4.55;;;3.15;;
58294;SDS011;45705;55.592;37.460;2023-03-14T09:19:23;5.93;;;2.92;;
58294;SDS011;45705;55.592;37.460;2023-03-14T09:21:49;6.00;;;3.17;;
58294;SDS011;45705;55.592;37.460;2023-03-14T09:24:15;8.45;;;3.28;;
58294;SDS011;45705;55.592;37.460;2023-03-14T09:26:41;8.88;;;3.85;;
58294;SDS011;45705;55.592;37.460;2023-03-14T09:29:07;7.93;;;3.40;;
58294;SDS011;45705;55.592;37.460;2023-03-14T09:31:33;5.00;;;3.38;;
58294;SDS011;45705;55.592;37.460;2023-03-14T09:33:58;5.30;;;3.38;;
58294;SDS011;45705;55.592;37.460;2023-03-14T09:36:24;4.95;;;3.20;;
58294;SDS011;45705;55.592;37.460;2023-03-14T09:38:50;8.35;;;4.00;;
58294;SDS011;45705;55.592;37.460;2023-03-14T09:41:17;6.05;;;2.90;;
58294;SDS011;45705;55.592;37.460;2023-03-14T09:46:29;6.30;;;3.75;;
58294;SDS011;45705;55.592;37.460;2023-03-14T09:48:56;8.55;;;3.72;;
58294;SDS011;45705;55.592;37.460;2023-03-14T09:51:21;6.75;;;2.83;;
58294;SDS011;45705;55.592;37.460;2023-03-14T09:53:49;5.63;;;3.42;;
58294;SDS011;45705;55.592;37.460;2023-03-14T09:56:19;6.70;;;3.15;;
58294;SDS011;45705;55.592;37.460;2023-03-14T09:59:00;4.75;;;3.13;;
58294;SDS011;45705;55.592;37.460;2023-03-14T10:01:32;8.32;;;3.42;;
58294;SDS011;45705;55.592;37.460;2023-03-14T10:04:12;7.18;;;3.13;;
58294;SDS011;45705;55.592;37.460;2023-03-14T10:06:44;5.13;;;3.20;;
58294;SDS011;45705;55.592;37.460;2023-03-14T10:09:11;6.65;;;3.40;;
58294;SDS011;45705;55.592;37.460;2023-03-14T10:11:44;5.68;;;3.10;;
58294;SDS011;45705;55.592;37.460;2023-03-14T10:14:10;6.05;;;2.67;;
58294;SDS011;45705;55.592;37.460;2023-03-14T10:16:42;4.77;;;3.20;;
58294;SDS011;45705;55.592;37.460;2023-03-14T10:19:10;9.23;;;3.20;;
58294;SDS011;45705;55.592;37.460;2023-03-14T10:21:41;7.32;;;3.55;;
58294;SDS011;45705;55.592;37.460;2023-03-14T10:26:53;6.80;;;3.83;;
58294;SDS011;45705;55.592;37.460;2023-03-14T10:29:23;5.55;;;3.20;;
58294;SDS011;45705;55.592;37.460;2023-03-14T10:31:53;4.53;;;2.90;;
58294;SDS011;45705;55.592;37.460;2023-03-14T10:34:37;7.65;;;3.75;;
58294;SDS011;45705;55.592;37.460;2023-03-14T10:37:23;7.47;;;3.45;;
58294;SDS011;45705;55.592;37.460;2023-03-14T10:39:52;5.68;;;3.65;;
58294;SDS011;45705;55.592;37.460;2023-03-14T10:42:27;4.97;;;2.77;;
58294;SDS011;45705;55.592;37.460;2023-03-14T10:45:00;7.65;;;3.50;;
58294;SDS011;45705;55.592;37.460;2023-03-14T10:47:29;6.28;;;3.78;;
58294;SDS011;45705;55.592;37.460;2023-03-14T10:49:57;6.95;;;3.80;;
58294;SDS011;45705;55.592;37.460;2023-03-14T10:52:51;8.88;;;3.88;;
58294;SDS011;45705;55.592;37.460;2023-03-14T10:55:17;6.70;;;3.60;;
58294;SDS011;45705;55.592;37.460;2023-03-14T10:57:43;5.93;;;3.72;;
58294;SDS011;45705;55.592;37.460;2023-03-14T11:00:16;6.57;;;3.80;;
58294;SDS011;45705;55.592;37.460;2023-03-14T11:02:47;6.93;;;3.92;;
58294;SDS011;45705;55.592;37.460;2023-03-14T11:07:50;8.85;;;4.18;;
58294;SDS011;45705;55.592;37.460;2023-03-14T11:13:11;5.13;;;3.28;;
58294;SDS011;45705;55.592;37.460;2023-03-14T11:21:07;5.95;;;2.85;;
58294;SDS011;45705;55.592;37.460;2023-03-14T11:29:08;6.53;;;2.97;;
58294;SDS011;45705;55.592;37.460;2023-03-14T11:31:59;7.03;;;3.47;;
58294;SDS011;45705;55.592;37.460;2023-03-14T11:34:40;6.15;;;3.72;;
58294;SDS011;45705;55.592;37.460;2023-03-14T11:40:26;7.32;;;3.40;;
58294;SDS011;45705;55.592;37.460;2023-03-14T11:45:35;8.75;;;3.42;;
58294;SDS011;45705;55.592;37.460;2023-03-14T11:48:10;6.80;;;3.72;;
58294;SDS011;45705;55.592;37.460;2023-03-14T11:50:43;8.40;;;3.78;;
58294;SDS011;45705;55.592;37.460;2023-03-14T11:53:16;6.68;;;3.08;;
58294;SDS011;45705;55.592;37.460;2023-03-14T11:55:47;4.97;;;3.40;;
58294;SDS011;45705;55.592;37.460;2023-03-14T11:58:25;4.75;;;3.17;;
58294;SDS011;45705;55.592;37.460;2023-03-14T12:00:55;8.23;;;3.33;;
58294;SDS011;45705;55.592;37.460;2023-03-14T12:08:54;6.78;;;4.30;;
58294;SDS011;45705;55.592;37.460;2023-03-14T12:11:42;6.38;;;3.28;;
58294;SDS011;45705;55.592;37.460;2023-03-14T12:14:19;4.00;;;2.75;;
58294;SDS011;45705;55.592;37.460;2023-03-14T12:16:46;6.85;;;3.63;;
58294;SDS011;45705;55.592;37.460;2023-03-14T12:21:55;5.13;;;3.20;;
58294;SDS011;45705;55.592;37.460;2023-03-14T12:24:29;7.05;;;3.83;;
58294;SDS011;45705;55.592;37.460;2023-03-14T12:26:57;10.95;;;3.85;;
58294;SDS011;45705;55.592;37.460;2023-03-14T12:29:25;8.98;;;3.75;;
58294;SDS011;45705;55.592;37.460;2023-03-14T12:34:27;5.97;;;2.90;;
58294;SDS011;45705;55.592;37.460;2023-03-14T12:37:10;6.85;;;3.10;;
58294;SDS011;45705;55.592;37.460;2023-03-14T12:50:45;6.22;;;2.60;;
58294;SDS011;45705;55.592;37.460;2023-03-14T12:59:14;9.77;;;3.60;;
58294;SDS011;45705;55.592;37.460;2023-03-14T13:04:33;5.90;;;3.65;;
58294;SDS011;45705;55.592;37.460;2023-03-14T13:14:27;4.38;;;2.65;;
58294;SDS011;45705;55.592;37.460;2023-03-14T13:16:54;6.77;;;3.87;;
58294;SDS011;45705;55.592;37.460;2023-03-14T13:19:21;5.22;;;3.00;;
58294;SDS011;45705;55.592;37.460;2023-03-14T13:21:51;6.70;;;3.50;;
58294;SDS011;45705;55.592;37.460;2023-03-14T13:24:27;4.43;;;3.35;;
58294;SDS011;45705;55.592;37.460;2023-03-14T13:26:53;7.90;;;3.60;;
58294;SDS011;45705;55.592;37.460;2023-03-14T13:29:20;6.60;;;3.58;;
58294;SDS011;45705;55.592;37.460;2023-03-14T13:31:53;5.38;;;3.42;;
58294;SDS011;45705;55.592;37.460;2023-03-14T13:34:30;6.43;;;3.50;;
58294;SDS011;45705;55.592;37.460;2023-03-14T13:36:57;7.53;;;2.88;;
58294;SDS011;45705;55.592;37.460;2023-03-14T13:39:24;6.72;;;3.78;;
58294;SDS011;45705;55.592;37.460;2023-03-14T13:41:52;7.72;;;3.80;;
58294;SDS011;45705;55.592;37.460;2023-03-14T13:44:31;4.40;;;3.08;;
58294;SDS011;45705;55.592;37.460;2023-03-14T13:47:00;5.88;;;3.25;;
58294;SDS011;45705;55.592;37.460;2023-03-14T13:49:28;7.10;;;3.47;;
58294;SDS011;45705;55.592;37.460;2023-03-14T13:51:57;6.60;;;3.40;;
58294;SDS011;45705;55.592;37.460;2023-03-14T13:54:23;6.90;;;3.35;;
58294;SDS011;45705;55.592;37.460;2023-03-14T13:57:01;5.07;;;3.33;;
58294;SDS011;45705;55.592;37.460;2023-03-14T13:59:32;5.90;;;3.40;;
58294;SDS011;45705;55.592;37.460;2023-03-14T14:02:18;5.80;;;3.65;;
58294;SDS011;45705;55.592;37.460;2023-03-14T14:04:51;5.78;;;3.10;;
58294;SDS011;45705;55.592;37.460;2023-03-14T14:07:16;11.70;;;3.67;;
58294;SDS011;45705;55.592;37.460;2023-03-14T14:09:52;7.72;;;3.38;;
58294;SDS011;45705;55.592;37.460;2023-03-14T14:15:10;7.85;;;3.47;;
58294;SDS011;45705;55.592;37.460;2023-03-14T14:17:51;4.60;;;2.97;;
58294;SDS011;45705;55.592;37.460;2023-03-14T14:20:40;7.93;;;3.63;;
58294;SDS011;45705;55.592;37.460;2023-03-14T14:23:26;5.28;;;3.40;;
58294;SDS011;45705;55.592;37.460;2023-03-14T14:25:55;9.52;;;3.42;;
58294;SDS011;45705;55.592;37.460;2023-03-14T14:28:29;9.27;;;3.30;;
58294;SDS011;45705;55.592;37.460;2023-03-14T14:31:29;5.07;;;2.90;;
58294;SDS011;45705;55.592;37.460;2023-03-14T14:36:20;5.13;;;3.88;;
58294;SDS011;45705;55.592;37.460;2023-03-14T14:38:53;6.78;;;4.07;;
58294;SDS011;45705;55.592;37.460;2023-03-14T14:41:26;9.50;;;4.43;;
58294;SDS011;45705;55.592;37.460;2023-03-14T14:43:54;9.80;;;3.45;;
58294;SDS011;45705;55.592;37.460;2023-03-14T14:46:21;8.02;;;3.15;;
58294;SDS011;45705;55.592;37.460;2023-03-14T14:48:47;5.93;;;3.83;;
58294;SDS011;45705;55.592;37.460;2023-03-14T14:51:23;6.95;;;3.22;;
58294;SDS011;45705;55.592;37.460;2023-03-14T14:53:59;8.63;;;4.05;;
58294;SDS011;45705;55.592;37.460;2023-03-14T14:56:36;8.27;;;4.07;;
58294;SDS011;45705;55.592;37.460;2023-03-14T14:59:02;7.03;;;3.58;;
58294;SDS011;45705;55.592;37.460;2023-03-14T15:01:39;10.88;;;4.43;;
58294;SDS011;45705;55.592;37.460;2023-03-14T15:04:11;9.02;;;4.18;;
58294;SDS011;45705;55.592;37.460;2023-03-14T15:06:43;6.63;;;3.72;;
58294;SDS011;45705;55.592;37.460;2023-03-14T15:09:11;6.43;;;3.58;;
58294;SDS011;45705;55.592;37.460;2023-03-14T15:11:37;8.45;;;3.75;;
58294;SDS011;45705;55.592;37.460;2023-03-14T15:14:03;5.38;;;3.28;;
58294;SDS011;45705;55.592;37.460;2023-03-14T15:16:29;8.98;;;3.78;;
58294;SDS011;45705;55.592;37.460;2023-03-14T15:18:58;9.57;;;4.10;;
58294;SDS011;45705;55.592;37.460;2023-03-14T15:21:27;8.45;;;2.85;;
58294;SDS011;45705;55.592;37.460;2023-03-14T15:23:54;6.50;;;3.80;;
58294;SDS011;45705;55.592;37.460;2023-03-14T15:26:21;6.15;;;3.40;;
58294;SDS011;45705;55.592;37.460;2023-03-14T15:31:15;7.07;;;3.70;;
58294;SDS011;45705;55.592;37.460;2023-03-14T15:33:43;5.07;;;3.50;;
58294;SDS011;45705;55.592;37.460;2023-03-14T15:36:21;8.07;;;3.67;;
58294;SDS011;45705;55.592;37.460;2023-03-14T15:38:50;6.38;;;3.50;;
58294;SDS011;45705;55.592;37.460;2023-03-14T15:41:17;7.15;;;3.80;;
58294;SDS011;45705;55.592;37.460;2023-03-14T15:43:43;7.30;;;3.92;;
58294;SDS011;45705;55.592;37.460;2023-03-14T15:46:10;7.90;;;3.88;;
58294;SDS011;45705;55.592;37.460;2023-03-14T15:48:36;10.70;;;3.40;;
58294;SDS011;45705;55.592;37.460;2023-03-14T15:51:02;5.85;;;3.20;;
58294;SDS011;45705;55.592;37.460;2023-03-14T15:53:28;5.35;;;3.47;;
58294;SDS011;45705;55.592;37.460;2023-03-14T15:55:53;7.47;;;4.45;;
58294;SDS011;45705;55.592;37.460;2023-03-14T15:58:20;8.07;;;4.18;;
58294;SDS011;45705;55.592;37.460;2023-03-14T16:00:46;6.57;;;3.72;;
58294;SDS011;45705;55.592;37.460;2023-03-14T16:03:12;6.30;;;3.55;;
58294;SDS011;45705;55.592;37.460;2023-03-14T16:05:41;4.95;;;3.05;;
58294;SDS011;45705;55.592;37.460;2023-03-14T16:08:07;12.90;;;3.67;;
58294;SDS011;45705;55.592;37.460;2023-03-14T16:10:33;6.82;;;3.45;;
58294;SDS011;45705;55.592;37.460;2023-03-14T16:12:59;5.35;;;3.42;;
58294;SDS011;45705;55.592;37.460;2023-03-14T16:15:25;4.93;;;3.50;;
58294;SDS011;45705;55.592;37.460;2023-03-14T16:17:55;7.05;;;3.63;;
58294;SDS011;45705;55.592;37.460;2023-03-14T16:20:21;6.30;;;3.85;;